Ora Direzione Vento Velocita' Vento Media Vento Raffica Max. Temperatura Wind Chill Pioggia Pressione
04:46:06.00 °(N)0.0 Kts0.0 Kts23.5 Kts0.0 °C0.0 °C0.0 mm1015.0 Hpa
04:25:23.00 °(N)0.0 Kts0.0 Kts23.5 Kts0.0 °C0.0 °C0.0 mm1014.9 Hpa
04:04:43.00 °(N)0.0 Kts0.0 Kts23.5 Kts0.0 °C0.0 °C0.0 mm1014.9 Hpa
03:44:03.00 °(N)0.0 Kts0.0 Kts23.5 Kts0.0 °C0.0 °C0.0 mm1015.0 Hpa
03:25:23.00 °(N)0.0 Kts0.0 Kts23.5 Kts0.0 °C0.0 °C0.0 mm1015.0 Hpa
03:04:46.00 °(N)0.0 Kts0.0 Kts23.5 Kts0.0 °C0.0 °C0.0 mm1015.0 Hpa
02:46:03.00 °(N)0.0 Kts0.0 Kts23.5 Kts0.0 °C0.0 °C0.0 mm1015.0 Hpa
02:25:21.00 °(N)0.0 Kts0.0 Kts23.5 Kts0.0 °C0.0 °C0.0 mm1014.9 Hpa
02:04:38.00 °(N)0.0 Kts0.0 Kts23.5 Kts0.0 °C0.0 °C0.0 mm1014.9 Hpa
01:45:53.00 °(N)0.0 Kts0.0 Kts23.5 Kts0.0 °C0.0 °C0.0 mm1014.7 Hpa
01:25:14.055 °(NE)14.8 Kts0.0 Kts23.5 Kts7.0 °C-17.8 °C0.0 mm1014.5 Hpa
01:04:32.052 °(NE)13.9 Kts17.4 Kts23.5 Kts7.2 °C-3.9 °C0.0 mm1014.5 Hpa
00:45:57.041 °(NE)15.6 Kts17.4 Kts23.5 Kts7.1 °C-4.0 °C0.0 mm1014.4 Hpa
00:25:12.041 °(NE)20.9 Kts17.4 Kts23.5 Kts6.9 °C-4.3 °C0.0 mm1014.2 Hpa
00:04:34.059 °(ENE)15.6 Kts18.2 Kts20.9 Kts7.1 °C-4.3 °C0.0 mm1014.4 Hpa
23:45:57.061 °(ENE)18.2 Kts15.6 Kts30.4 Kts7.2 °C-3.0 °C0.0 mm1014.2 Hpa
23:25:13.039 °(NE)15.6 Kts17.4 Kts30.4 Kts7.2 °C-3.9 °C0.0 mm1014.3 Hpa
23:04:33.058 °(ENE)18.2 Kts19.1 Kts30.4 Kts7.3 °C-4.3 °C0.0 mm1014.2 Hpa
22:45:56.056 °(NE)15.6 Kts17.4 Kts30.4 Kts7.2 °C-3.9 °C0.0 mm1014.1 Hpa
22:25:09.053 °(NE)18.2 Kts18.2 Kts30.4 Kts7.3 °C-4.0 °C0.0 mm1013.7 Hpa